Missouri River (Missouri), Boonville (06909000)

StateMissouriLatestUnknown (129000 cfs)
RiverMissouri RiverRatingObservedEstimated
Updated2021-04-10 23:30 (38 minutes ago)Flood - The river is flooding. Obstacles can be treacherous or deadly. The river should be avoided at this stage for casual trips and definitely for the inexperienced. Trips should be attempted only with protective gear and equipment.Flood(none)(none)
Discharge129000 cfs (median: 62500 cfs)High - The river is high and potentially dangerous, especially for the young and / or inexperienced. Normal stream obstacles are sometimes difficult to navigate. Extended distances can be attempted, but canoe travel may not be advisable.High(none)(none)
Height17.1 feetGood - Conditions are ideal for a canoe or kayak. Boats typically will drag on fewer than one-quarter of riffles, if at all, and portages are unnecessary or rare. Normal float lengths can be attempted without a problem.Good(none)(none)
TrendRising (rising over 24 hours)Low - River is low but can still be floated. Some riffles are okay but most come with significant dragging and might need a portage. Float lengths should be reduced to accommodate low flow, dragging, and portages.Low(none)(none)
USGSExternal icon USGS Site (External icon Google Maps)Poor - River is too low to float comfortably. Most or all riffles will drag or must be portaged and some obstacles (such as slick shelf rock) cause undue problems. Avoid the river at this stage for casual paddling trips.Poor(none)(none)

Trending Data

Plot Image

Trips for Missouri River (Missouri), Boonville (06909000)

DateStartEndDistanceConditionDischargeHeightFishingDetails

A total of 0 rows are displayed.

Condition Descriptions

Fishing Conditions

Fish Species

Notes

Classic Trip List

The classic River Trips application is still available for use. It is updated with the new system using a data retrofit. It is no longer maintained. The original River Trips application is no longer updated (as of 1 Dec 2016) but can be checked for errors or for the condition of the data before it was converted to the new system.

Gauge Data Table

ObservationHeightDischargeMaximum
Discharge
Minimum
Discharge
Mean
Discharge
P05P10P20P25P50
(Median)
P75P80P90P95
2021-04-10 23:30 17.10 129000 241000 (1983) 34900 (2003) 83600 38100 40100 44700 47100 62000 103000 126000 160000 192000
2021-04-10 22:30 16.76 126000 241000 (1983) 34900 (2003) 83600 38100 40100 44700 47100 62000 103000 126000 160000 192000
2021-04-10 21:30 16.49 123000 241000 (1983) 34900 (2003) 83600 38100 40100 44700 47100 62000 103000 126000 160000 192000
2021-04-10 20:30 16.14 119000 241000 (1983) 34900 (2003) 83600 38100 40100 44700 47100 62000 103000 126000 160000 192000
2021-04-10 19:30 15.90 117000 241000 (1983) 34900 (2003) 83600 38100 40100 44700 47100 62000 103000 126000 160000 192000
2021-04-10 18:30 15.57 113000 241000 (1983) 34900 (2003) 83600 38100 40100 44700 47100 62000 103000 126000 160000 192000
2021-04-10 17:30 15.24 110000 241000 (1983) 34900 (2003) 83600 38100 40100 44700 47100 62000 103000 126000 160000 192000
2021-04-10 16:30 14.91 107000 241000 (1983) 34900 (2003) 83600 38100 40100 44700 47100 62000 103000 126000 160000 192000
2021-04-10 15:30 14.68 104000 241000 (1983) 34900 (2003) 83600 38100 40100 44700 47100 62000 103000 126000 160000 192000
2021-04-10 14:30 14.46 102000 241000 (1983) 34900 (2003) 83600 38100 40100 44700 47100 62000 103000 126000 160000 192000
2021-04-10 13:30 14.28 100000 241000 (1983) 34900 (2003) 83600 38100 40100 44700 47100 62000 103000 126000 160000 192000
2021-04-10 12:30 14.17 99200 241000 (1983) 34900 (2003) 83600 38100 40100 44700 47100 62000 103000 126000 160000 192000
2021-04-10 11:30 13.99 97400 241000 (1983) 34900 (2003) 83600 38100 40100 44700 47100 62000 103000 126000 160000 192000
2021-04-10 10:30 14.01 97600 241000 (1983) 34900 (2003) 83600 38100 40100 44700 47100 62000 103000 126000 160000 192000
2021-04-10 09:30 13.95 97000 241000 (1983) 34900 (2003) 83600 38100 40100 44700 47100 62000 103000 126000 160000 192000
2021-04-10 08:30 13.91 96600 241000 (1983) 34900 (2003) 83600 38100 40100 44700 47100 62000 103000 126000 160000 192000
2021-04-10 07:30 13.90 96500 241000 (1983) 34900 (2003) 83600 38100 40100 44700 47100 62000 103000 126000 160000 192000
2021-04-10 06:30 13.86 96100 241000 (1983) 34900 (2003) 83600 38100 40100 44700 47100 62000 103000 126000 160000 192000
2021-04-10 05:30 13.87 96200 241000 (1983) 34900 (2003) 83600 38100 40100 44700 47100 62000 103000 126000 160000 192000
2021-04-10 04:30 13.75 95000 241000 (1983) 34900 (2003) 83600 38100 40100 44700 47100 62000 103000 126000 160000 192000
2021-04-10 03:30 13.65 94000 241000 (1983) 34900 (2003) 83600 38100 40100 44700 47100 62000 103000 126000 160000 192000
2021-04-10 02:30 13.81 95600 241000 (1983) 34900 (2003) 83600 38100 40100 44700 47100 62000 103000 126000 160000 192000
2021-04-10 01:30 13.84 95900 241000 (1983) 34900 (2003) 83600 38100 40100 44700 47100 62000 103000 126000 160000 192000
2021-04-10 00:30 13.86 96100 241000 (1983) 34900 (2003) 83600 38100 40100 44700 47100 62000 103000 126000 160000 192000
2021-04-09 23:30 13.88 96300 270000 (1983) 34700 (2003) 83800 39000 40400 45500 51200 60500 108000 123000 157000 189000
2021-04-09 22:30 13.90 96500 270000 (1983) 34700 (2003) 83800 39000 40400 45500 51200 60500 108000 123000 157000 189000
2021-04-09 21:30 13.92 96700 270000 (1983) 34700 (2003) 83800 39000 40400 45500 51200 60500 108000 123000 157000 189000
2021-04-09 20:30 13.93 96800 270000 (1983) 34700 (2003) 83800 39000 40400 45500 51200 60500 108000 123000 157000 189000
2021-04-09 19:30 13.94 96900 270000 (1983) 34700 (2003) 83800 39000 40400 45500 51200 60500 108000 123000 157000 189000
2021-04-09 18:30 13.96 97100 270000 (1983) 34700 (2003) 83800 39000 40400 45500 51200 60500 108000 123000 157000 189000
2021-04-09 17:30 13.93 96800 270000 (1983) 34700 (2003) 83800 39000 40400 45500 51200 60500 108000 123000 157000 189000
2021-04-09 16:30 13.86 96100 270000 (1983) 34700 (2003) 83800 39000 40400 45500 51200 60500 108000 123000 157000 189000
2021-04-09 15:30 14.01 97600 270000 (1983) 34700 (2003) 83800 39000 40400 45500 51200 60500 108000 123000 157000 189000
2021-04-09 14:30 14.00 97500 270000 (1983) 34700 (2003) 83800 39000 40400 45500 51200 60500 108000 123000 157000 189000
2021-04-09 13:30 14.01 97600 270000 (1983) 34700 (2003) 83800 39000 40400 45500 51200 60500 108000 123000 157000 189000
2021-04-09 12:30 14.04 97900 270000 (1983) 34700 (2003) 83800 39000 40400 45500 51200 60500 108000 123000 157000 189000
2021-04-09 11:30 14.04 97900 270000 (1983) 34700 (2003) 83800 39000 40400 45500 51200 60500 108000 123000 157000 189000
2021-04-09 10:30 14.03 97800 270000 (1983) 34700 (2003) 83800 39000 40400 45500 51200 60500 108000 123000 157000 189000
2021-04-09 09:30 14.05 98000 270000 (1983) 34700 (2003) 83800 39000 40400 45500 51200 60500 108000 123000 157000 189000
2021-04-09 08:30 14.01 97600 270000 (1983) 34700 (2003) 83800 39000 40400 45500 51200 60500 108000 123000 157000 189000
2021-04-09 07:30 14.03 97800 270000 (1983) 34700 (2003) 83800 39000 40400 45500 51200 60500 108000 123000 157000 189000
2021-04-09 06:30 14.01 97600 270000 (1983) 34700 (2003) 83800 39000 40400 45500 51200 60500 108000 123000 157000 189000
2021-04-09 05:30 14.00 97500 270000 (1983) 34700 (2003) 83800 39000 40400 45500 51200 60500 108000 123000 157000 189000
2021-04-09 04:30 13.99 97400 270000 (1983) 34700 (2003) 83800 39000 40400 45500 51200 60500 108000 123000 157000 189000
2021-04-09 03:30 13.96 97100 270000 (1983) 34700 (2003) 83800 39000 40400 45500 51200 60500 108000 123000 157000 189000
2021-04-09 02:30 13.92 96700 270000 (1983) 34700 (2003) 83800 39000 40400 45500 51200 60500 108000 123000 157000 189000
2021-04-09 01:30 13.91 96600 270000 (1983) 34700 (2003) 83800 39000 40400 45500 51200 60500 108000 123000 157000 189000
2021-04-09 00:30 13.88 96300 270000 (1983) 34700 (2003) 83800 39000 40400 45500 51200 60500 108000 123000 157000 189000
2021-04-08 23:30 13.83 95800 297000 (1983) 33800 (2003) 86200 39600 41000 47300 48500 61600 118000 128000 160000 199000
2021-04-08 22:30 13.79 95400 297000 (1983) 33800 (2003) 86200 39600 41000 47300 48500 61600 118000 128000 160000 199000
2021-04-08 21:30 13.74 94900 297000 (1983) 33800 (2003) 86200 39600 41000 47300 48500 61600 118000 128000 160000 199000
2021-04-08 20:30 13.66 94100 297000 (1983) 33800 (2003) 86200 39600 41000 47300 48500 61600 118000 128000 160000 199000
2021-04-08 19:30 13.63 93800 297000 (1983) 33800 (2003) 86200 39600 41000 47300 48500 61600 118000 128000 160000 199000
2021-04-08 18:30 13.56 93100 297000 (1983) 33800 (2003) 86200 39600 41000 47300 48500 61600 118000 128000 160000 199000
2021-04-08 17:30 13.49 92400 297000 (1983) 33800 (2003) 86200 39600 41000 47300 48500 61600 118000 128000 160000 199000
2021-04-08 16:30 13.37 91300 297000 (1983) 33800 (2003) 86200 39600 41000 47300 48500 61600 118000 128000 160000 199000
2021-04-08 15:30 13.29 90500 297000 (1983) 33800 (2003) 86200 39600 41000 47300 48500 61600 118000 128000 160000 199000
2021-04-08 14:30 13.22 89800 297000 (1983) 33800 (2003) 86200 39600 41000 47300 48500 61600 118000 128000 160000 199000
2021-04-08 13:30 13.13 89000 297000 (1983) 33800 (2003) 86200 39600 41000 47300 48500 61600 118000 128000 160000 199000
2021-04-08 12:30 13.08 88500 297000 (1983) 33800 (2003) 86200 39600 41000 47300 48500 61600 118000 128000 160000 199000
2021-04-08 11:30 13.04 88100 297000 (1983) 33800 (2003) 86200 39600 41000 47300 48500 61600 118000 128000 160000 199000
2021-04-08 10:30 12.99 87600 297000 (1983) 33800 (2003) 86200 39600 41000 47300 48500 61600 118000 128000 160000 199000
2021-04-08 09:30 12.93 87100 297000 (1983) 33800 (2003) 86200 39600 41000 47300 48500 61600 118000 128000 160000 199000
2021-04-08 08:30 12.84 86200 297000 (1983) 33800 (2003) 86200 39600 41000 47300 48500 61600 118000 128000 160000 199000
2021-04-08 07:30 12.78 85700 297000 (1983) 33800 (2003) 86200 39600 41000 47300 48500 61600 118000 128000 160000 199000
2021-04-08 06:30 12.68 84800 297000 (1983) 33800 (2003) 86200 39600 41000 47300 48500 61600 118000 128000 160000 199000
2021-04-08 05:30 12.58 83900 297000 (1983) 33800 (2003) 86200 39600 41000 47300 48500 61600 118000 128000 160000 199000
2021-04-08 04:30 12.52 83300 297000 (1983) 33800 (2003) 86200 39600 41000 47300 48500 61600 118000 128000 160000 199000
2021-04-08 03:30 12.40 82200 297000 (1983) 33800 (2003) 86200 39600 41000 47300 48500 61600 118000 128000 160000 199000
2021-04-08 02:30 12.33 81600 297000 (1983) 33800 (2003) 86200 39600 41000 47300 48500 61600 118000 128000 160000 199000
2021-04-08 01:30 12.25 80900 297000 (1983) 33800 (2003) 86200 39600 41000 47300 48500 61600 118000 128000 160000 199000
2021-04-08 00:30 12.16 80200 297000 (1983) 33800 (2003) 86200 39600 41000 47300 48500 61600 118000 128000 160000 199000

A total of 72 rows are displayed for years 1958 through 2020.